sensor_id;sensor_type;location;lat;lon;timestamp;P1;durP1;ratioP1;P2;durP2;ratioP2
16837;SDS011;19510;54.486;9.046;2023-07-09T00:02:23;2.95;;;1.95;;
16837;SDS011;19510;54.486;9.046;2023-07-09T00:04:50;2.90;;;1.75;;
16837;SDS011;19510;54.486;9.046;2023-07-09T00:09:55;2.67;;;1.80;;
16837;SDS011;19510;54.486;9.046;2023-07-09T00:12:22;2.42;;;1.60;;
16837;SDS011;19510;54.486;9.046;2023-07-09T00:14:48;4.22;;;2.03;;
16837;SDS011;19510;54.486;9.046;2023-07-09T00:17:23;4.55;;;1.80;;
16837;SDS011;19510;54.486;9.046;2023-07-09T00:19:52;2.75;;;1.98;;
16837;SDS011;19510;54.486;9.046;2023-07-09T00:22:18;5.38;;;2.10;;
16837;SDS011;19510;54.486;9.046;2023-07-09T00:24:45;4.53;;;1.98;;
16837;SDS011;19510;54.486;9.046;2023-07-09T00:27:13;2.70;;;1.98;;
16837;SDS011;19510;54.486;9.046;2023-07-09T00:29:43;4.90;;;1.90;;
16837;SDS011;19510;54.486;9.046;2023-07-09T00:32:16;4.15;;;2.03;;
16837;SDS011;19510;54.486;9.046;2023-07-09T00:34:45;3.08;;;2.05;;
16837;SDS011;19510;54.486;9.046;2023-07-09T00:37:20;2.20;;;1.83;;
16837;SDS011;19510;54.486;9.046;2023-07-09T00:39:52;3.45;;;1.88;;
16837;SDS011;19510;54.486;9.046;2023-07-09T00:42:19;3.28;;;1.85;;
16837;SDS011;19510;54.486;9.046;2023-07-09T00:44:53;4.07;;;1.92;;
16837;SDS011;19510;54.486;9.046;2023-07-09T00:50:10;4.65;;;2.05;;
16837;SDS011;19510;54.486;9.046;2023-07-09T00:52:51;2.50;;;1.83;;
16837;SDS011;19510;54.486;9.046;2023-07-09T00:55:21;2.45;;;1.80;;
16837;SDS011;19510;54.486;9.046;2023-07-09T00:57:51;2.97;;;1.88;;
16837;SDS011;19510;54.486;9.046;2023-07-09T01:00:22;2.83;;;1.95;;
16837;SDS011;19510;54.486;9.046;2023-07-09T01:03:00;2.70;;;2.10;;
16837;SDS011;19510;54.486;9.046;2023-07-09T01:05:28;3.25;;;1.70;;
16837;SDS011;19510;54.486;9.046;2023-07-09T01:07:54;5.07;;;2.00;;
16837;SDS011;19510;54.486;9.046;2023-07-09T01:10:23;4.57;;;1.98;;
16837;SDS011;19510;54.486;9.046;2023-07-09T01:12:49;3.47;;;2.00;;
16837;SDS011;19510;54.486;9.046;2023-07-09T01:15:15;6.57;;;2.00;;
16837;SDS011;19510;54.486;9.046;2023-07-09T01:17:41;6.65;;;2.38;;
16837;SDS011;19510;54.486;9.046;2023-07-09T01:20:13;4.70;;;1.90;;
16837;SDS011;19510;54.486;9.046;2023-07-09T01:22:41;3.35;;;1.98;;
16837;SDS011;19510;54.486;9.046;2023-07-09T01:25:07;4.00;;;1.85;;
16837;SDS011;19510;54.486;9.046;2023-07-09T01:30:04;3.67;;;2.10;;
16837;SDS011;19510;54.486;9.046;2023-07-09T01:32:33;3.03;;;1.80;;
16837;SDS011;19510;54.486;9.046;2023-07-09T01:35:00;3.67;;;1.98;;
16837;SDS011;19510;54.486;9.046;2023-07-09T01:37:30;2.47;;;2.00;;
16837;SDS011;19510;54.486;9.046;2023-07-09T01:39:56;4.65;;;1.70;;
16837;SDS011;19510;54.486;9.046;2023-07-09T01:42:23;3.92;;;2.00;;
16837;SDS011;19510;54.486;9.046;2023-07-09T01:44:51;3.00;;;2.20;;
16837;SDS011;19510;54.486;9.046;2023-07-09T01:47:18;3.20;;;2.33;;
16837;SDS011;19510;54.486;9.046;2023-07-09T01:49:44;2.17;;;1.90;;
16837;SDS011;19510;54.486;9.046;2023-07-09T01:52:14;3.55;;;2.00;;
16837;SDS011;19510;54.486;9.046;2023-07-09T01:54:41;3.75;;;1.95;;
16837;SDS011;19510;54.486;9.046;2023-07-09T01:59:41;6.32;;;1.83;;
16837;SDS011;19510;54.486;9.046;2023-07-09T02:02:09;3.22;;;2.05;;
16837;SDS011;19510;54.486;9.046;2023-07-09T02:04:40;2.67;;;1.83;;
16837;SDS011;19510;54.486;9.046;2023-07-09T02:07:07;4.07;;;2.28;;
16837;SDS011;19510;54.486;9.046;2023-07-09T02:09:33;2.70;;;1.88;;
16837;SDS011;19510;54.486;9.046;2023-07-09T02:11:59;3.20;;;2.00;;
16837;SDS011;19510;54.486;9.046;2023-07-09T02:14:25;3.90;;;1.95;;
16837;SDS011;19510;54.486;9.046;2023-07-09T02:16:50;4.93;;;2.45;;
16837;SDS011;19510;54.486;9.046;2023-07-09T02:19:17;7.15;;;1.90;;
16837;SDS011;19510;54.486;9.046;2023-07-09T02:21:42;4.05;;;2.30;;
16837;SDS011;19510;54.486;9.046;2023-07-09T02:24:08;3.47;;;2.03;;
16837;SDS011;19510;54.486;9.046;2023-07-09T02:26:34;3.42;;;2.00;;
16837;SDS011;19510;54.486;9.046;2023-07-09T02:28:59;2.58;;;2.05;;
16837;SDS011;19510;54.486;9.046;2023-07-09T02:31:25;4.28;;;2.05;;
16837;SDS011;19510;54.486;9.046;2023-07-09T02:33:54;3.75;;;2.20;;
16837;SDS011;19510;54.486;9.046;2023-07-09T02:36:21;3.80;;;2.00;;
16837;SDS011;19510;54.486;9.046;2023-07-09T02:38:46;3.58;;;2.47;;
16837;SDS011;19510;54.486;9.046;2023-07-09T02:41:12;5.03;;;2.67;;
16837;SDS011;19510;54.486;9.046;2023-07-09T02:43:38;7.22;;;2.25;;
16837;SDS011;19510;54.486;9.046;2023-07-09T02:46:03;2.95;;;2.08;;
16837;SDS011;19510;54.486;9.046;2023-07-09T02:48:29;4.13;;;2.25;;
16837;SDS011;19510;54.486;9.046;2023-07-09T02:50:55;4.88;;;2.53;;
16837;SDS011;19510;54.486;9.046;2023-07-09T02:53:20;6.28;;;2.30;;
16837;SDS011;19510;54.486;9.046;2023-07-09T02:55:46;3.40;;;2.10;;
16837;SDS011;19510;54.486;9.046;2023-07-09T02:58:12;3.35;;;2.53;;
16837;SDS011;19510;54.486;9.046;2023-07-09T03:00:38;5.07;;;2.33;;
16837;SDS011;19510;54.486;9.046;2023-07-09T03:03:03;2.60;;;2.00;;
16837;SDS011;19510;54.486;9.046;2023-07-09T03:05:29;3.72;;;2.30;;
16837;SDS011;19510;54.486;9.046;2023-07-09T03:07:55;3.22;;;2.22;;
16837;SDS011;19510;54.486;9.046;2023-07-09T03:10:20;3.33;;;2.47;;
16837;SDS011;19510;54.486;9.046;2023-07-09T03:12:46;3.45;;;2.10;;
16837;SDS011;19510;54.486;9.046;2023-07-09T03:15:12;2.78;;;2.05;;
16837;SDS011;19510;54.486;9.046;2023-07-09T03:17:37;6.03;;;2.30;;
16837;SDS011;19510;54.486;9.046;2023-07-09T03:20:03;3.63;;;2.13;;
16837;SDS011;19510;54.486;9.046;2023-07-09T03:22:30;4.53;;;2.55;;
16837;SDS011;19510;54.486;9.046;2023-07-09T03:24:56;4.75;;;2.33;;
16837;SDS011;19510;54.486;9.046;2023-07-09T03:27:21;4.25;;;2.20;;
16837;SDS011;19510;54.486;9.046;2023-07-09T03:29:47;2.67;;;1.95;;
16837;SDS011;19510;54.486;9.046;2023-07-09T03:32:13;4.05;;;2.10;;
16837;SDS011;19510;54.486;9.046;2023-07-09T03:34:39;5.03;;;2.08;;
16837;SDS011;19510;54.486;9.046;2023-07-09T03:37:04;5.93;;;2.05;;
16837;SDS011;19510;54.486;9.046;2023-07-09T03:39:30;4.20;;;2.20;;
16837;SDS011;19510;54.486;9.046;2023-07-09T03:41:56;4.28;;;2.35;;
16837;SDS011;19510;54.486;9.046;2023-07-09T03:44:21;3.50;;;2.17;;
16837;SDS011;19510;54.486;9.046;2023-07-09T03:46:47;2.67;;;1.83;;
16837;SDS011;19510;54.486;9.046;2023-07-09T03:49:13;5.18;;;2.78;;
16837;SDS011;19510;54.486;9.046;2023-07-09T03:51:38;5.85;;;2.22;;
16837;SDS011;19510;54.486;9.046;2023-07-09T03:54:04;4.15;;;2.28;;
16837;SDS011;19510;54.486;9.046;2023-07-09T03:56:30;3.65;;;2.10;;
16837;SDS011;19510;54.486;9.046;2023-07-09T03:58:56;4.63;;;2.50;;
16837;SDS011;19510;54.486;9.046;2023-07-09T04:01:22;3.20;;;2.00;;
16837;SDS011;19510;54.486;9.046;2023-07-09T04:03:48;3.85;;;2.47;;
16837;SDS011;19510;54.486;9.046;2023-07-09T04:06:13;2.97;;;2.10;;
16837;SDS011;19510;54.486;9.046;2023-07-09T04:08:39;8.02;;;2.20;;
16837;SDS011;19510;54.486;9.046;2023-07-09T04:11:05;3.25;;;2.05;;
16837;SDS011;19510;54.486;9.046;2023-07-09T04:13:31;4.25;;;1.85;;
16837;SDS011;19510;54.486;9.046;2023-07-09T04:15:57;3.80;;;2.40;;
16837;SDS011;19510;54.486;9.046;2023-07-09T04:18:22;2.75;;;1.85;;
16837;SDS011;19510;54.486;9.046;2023-07-09T04:20:49;3.35;;;2.10;;
16837;SDS011;19510;54.486;9.046;2023-07-09T04:23:16;5.90;;;2.40;;
16837;SDS011;19510;54.486;9.046;2023-07-09T04:25:42;4.85;;;2.30;;
16837;SDS011;19510;54.486;9.046;2023-07-09T04:28:08;3.42;;;2.00;;
16837;SDS011;19510;54.486;9.046;2023-07-09T04:30:34;4.60;;;2.28;;
16837;SDS011;19510;54.486;9.046;2023-07-09T04:33:00;3.50;;;2.17;;
16837;SDS011;19510;54.486;9.046;2023-07-09T04:35:26;2.95;;;2.00;;
16837;SDS011;19510;54.486;9.046;2023-07-09T04:37:51;3.17;;;2.10;;
16837;SDS011;19510;54.486;9.046;2023-07-09T04:40:17;4.55;;;2.00;;
16837;SDS011;19510;54.486;9.046;2023-07-09T04:42:44;2.47;;;2.00;;
16837;SDS011;19510;54.486;9.046;2023-07-09T04:45:10;3.10;;;2.20;;
16837;SDS011;19510;54.486;9.046;2023-07-09T04:47:37;3.33;;;2.25;;
16837;SDS011;19510;54.486;9.046;2023-07-09T04:50:07;7.55;;;2.53;;
16837;SDS011;19510;54.486;9.046;2023-07-09T04:52:34;5.13;;;2.30;;
16837;SDS011;19510;54.486;9.046;2023-07-09T04:55:00;3.95;;;2.05;;
16837;SDS011;19510;54.486;9.046;2023-07-09T04:57:27;5.85;;;2.20;;
16837;SDS011;19510;54.486;9.046;2023-07-09T04:59:52;3.65;;;2.20;;
16837;SDS011;19510;54.486;9.046;2023-07-09T05:02:18;4.00;;;2.08;;
16837;SDS011;19510;54.486;9.046;2023-07-09T05:04:44;3.20;;;1.85;;
16837;SDS011;19510;54.486;9.046;2023-07-09T05:07:10;2.47;;;1.80;;
16837;SDS011;19510;54.486;9.046;2023-07-09T05:09:35;4.88;;;1.85;;
16837;SDS011;19510;54.486;9.046;2023-07-09T05:12:01;5.95;;;2.13;;
16837;SDS011;19510;54.486;9.046;2023-07-09T05:14:27;4.63;;;1.90;;
16837;SDS011;19510;54.486;9.046;2023-07-09T05:16:53;3.35;;;2.05;;
16837;SDS011;19510;54.486;9.046;2023-07-09T05:19:19;3.78;;;2.00;;
16837;SDS011;19510;54.486;9.046;2023-07-09T05:21:45;5.40;;;1.90;;
16837;SDS011;19510;54.486;9.046;2023-07-09T05:24:10;4.28;;;2.17;;
16837;SDS011;19510;54.486;9.046;2023-07-09T05:26:36;2.78;;;1.70;;
16837;SDS011;19510;54.486;9.046;2023-07-09T05:29:03;4.22;;;2.30;;
16837;SDS011;19510;54.486;9.046;2023-07-09T05:31:30;2.92;;;1.98;;
16837;SDS011;19510;54.486;9.046;2023-07-09T05:33:56;3.20;;;1.88;;
16837;SDS011;19510;54.486;9.046;2023-07-09T05:36:22;2.97;;;2.03;;
16837;SDS011;19510;54.486;9.046;2023-07-09T05:38:48;4.05;;;2.00;;
16837;SDS011;19510;54.486;9.046;2023-07-09T05:41:15;3.55;;;1.90;;
16837;SDS011;19510;54.486;9.046;2023-07-09T05:43:42;5.05;;;1.92;;
16837;SDS011;19510;54.486;9.046;2023-07-09T05:46:09;3.83;;;2.00;;
16837;SDS011;19510;54.486;9.046;2023-07-09T05:48:35;2.95;;;2.22;;
16837;SDS011;19510;54.486;9.046;2023-07-09T05:51:01;6.00;;;2.30;;
16837;SDS011;19510;54.486;9.046;2023-07-09T05:53:26;1.92;;;1.40;;
16837;SDS011;19510;54.486;9.046;2023-07-09T05:55:53;4.07;;;2.00;;
16837;SDS011;19510;54.486;9.046;2023-07-09T05:58:20;2.75;;;1.95;;
16837;SDS011;19510;54.486;9.046;2023-07-09T06:00:45;2.63;;;2.00;;
16837;SDS011;19510;54.486;9.046;2023-07-09T06:03:17;4.57;;;1.95;;
16837;SDS011;19510;54.486;9.046;2023-07-09T06:05:43;7.25;;;1.70;;
16837;SDS011;19510;54.486;9.046;2023-07-09T06:08:08;4.38;;;1.90;;
16837;SDS011;19510;54.486;9.046;2023-07-09T06:10:34;4.25;;;2.10;;
16837;SDS011;19510;54.486;9.046;2023-07-09T06:13:00;4.35;;;2.00;;
16837;SDS011;19510;54.486;9.046;2023-07-09T06:15:26;4.93;;;2.10;;
16837;SDS011;19510;54.486;9.046;2023-07-09T06:17:51;3.10;;;2.00;;
16837;SDS011;19510;54.486;9.046;2023-07-09T06:20:17;3.45;;;1.90;;
16837;SDS011;19510;54.486;9.046;2023-07-09T06:22:43;6.20;;;2.00;;
16837;SDS011;19510;54.486;9.046;2023-07-09T06:25:08;2.92;;;1.60;;
16837;SDS011;19510;54.486;9.046;2023-07-09T06:27:34;2.20;;;1.90;;
16837;SDS011;19510;54.486;9.046;2023-07-09T06:30:00;5.72;;;2.10;;
16837;SDS011;19510;54.486;9.046;2023-07-09T06:32:26;2.63;;;1.80;;
16837;SDS011;19510;54.486;9.046;2023-07-09T06:34:51;3.20;;;1.83;;
16837;SDS011;19510;54.486;9.046;2023-07-09T06:37:17;3.10;;;2.05;;
16837;SDS011;19510;54.486;9.046;2023-07-09T06:39:43;3.47;;;1.95;;
16837;SDS011;19510;54.486;9.046;2023-07-09T06:42:09;2.78;;;2.00;;
16837;SDS011;19510;54.486;9.046;2023-07-09T06:44:34;4.40;;;2.00;;
16837;SDS011;19510;54.486;9.046;2023-07-09T06:47:00;7.55;;;2.20;;
16837;SDS011;19510;54.486;9.046;2023-07-09T06:49:27;3.20;;;1.98;;
16837;SDS011;19510;54.486;9.046;2023-07-09T06:51:53;3.53;;;1.70;;
16837;SDS011;19510;54.486;9.046;2023-07-09T06:54:18;2.70;;;1.67;;
16837;SDS011;19510;54.486;9.046;2023-07-09T06:56:46;5.72;;;1.92;;
16837;SDS011;19510;54.486;9.046;2023-07-09T06:59:12;4.35;;;3.22;;
16837;SDS011;19510;54.486;9.046;2023-07-09T07:01:38;3.17;;;2.38;;
16837;SDS011;19510;54.486;9.046;2023-07-09T07:04:04;5.15;;;2.33;;
16837;SDS011;19510;54.486;9.046;2023-07-09T07:06:29;5.32;;;2.20;;
16837;SDS011;19510;54.486;9.046;2023-07-09T07:08:56;2.70;;;1.90;;
16837;SDS011;19510;54.486;9.046;2023-07-09T07:11:21;3.70;;;2.28;;
16837;SDS011;19510;54.486;9.046;2023-07-09T07:13:47;2.88;;;1.70;;
16837;SDS011;19510;54.486;9.046;2023-07-09T07:16:16;3.25;;;1.95;;
16837;SDS011;19510;54.486;9.046;2023-07-09T07:18:42;3.35;;;1.85;;
16837;SDS011;19510;54.486;9.046;2023-07-09T07:21:10;17.88;;;10.70;;
16837;SDS011;19510;54.486;9.046;2023-07-09T07:23:36;5.82;;;2.80;;
16837;SDS011;19510;54.486;9.046;2023-07-09T07:26:02;6.00;;;3.78;;
16837;SDS011;19510;54.486;9.046;2023-07-09T07:28:29;3.75;;;2.05;;
16837;SDS011;19510;54.486;9.046;2023-07-09T07:30:58;2.92;;;2.03;;
16837;SDS011;19510;54.486;9.046;2023-07-09T07:33:28;4.68;;;2.28;;
16837;SDS011;19510;54.486;9.046;2023-07-09T07:35:53;6.03;;;2.47;;
16837;SDS011;19510;54.486;9.046;2023-07-09T07:38:19;3.30;;;2.28;;
16837;SDS011;19510;54.486;9.046;2023-07-09T07:40:45;5.10;;;2.13;;
16837;SDS011;19510;54.486;9.046;2023-07-09T07:43:11;3.55;;;2.20;;
16837;SDS011;19510;54.486;9.046;2023-07-09T07:45:40;3.15;;;2.47;;
16837;SDS011;19510;54.486;9.046;2023-07-09T07:48:06;2.88;;;2.20;;
16837;SDS011;19510;54.486;9.046;2023-07-09T07:50:32;15.15;;;10.00;;
16837;SDS011;19510;54.486;9.046;2023-07-09T07:52:58;12.60;;;5.88;;
16837;SDS011;19510;54.486;9.046;2023-07-09T07:55:26;8.20;;;2.97;;
16837;SDS011;19510;54.486;9.046;2023-07-09T07:57:53;5.90;;;2.20;;
16837;SDS011;19510;54.486;9.046;2023-07-09T08:00:21;3.42;;;2.28;;
16837;SDS011;19510;54.486;9.046;2023-07-09T08:02:47;6.18;;;2.15;;
16837;SDS011;19510;54.486;9.046;2023-07-09T08:05:12;3.45;;;2.50;;
16837;SDS011;19510;54.486;9.046;2023-07-09T08:07:38;5.25;;;2.33;;
16837;SDS011;19510;54.486;9.046;2023-07-09T08:10:04;3.45;;;2.17;;
16837;SDS011;19510;54.486;9.046;2023-07-09T08:12:30;3.03;;;2.10;;
16837;SDS011;19510;54.486;9.046;2023-07-09T08:14:57;4.50;;;2.38;;
16837;SDS011;19510;54.486;9.046;2023-07-09T08:17:23;4.72;;;2.30;;
16837;SDS011;19510;54.486;9.046;2023-07-09T08:19:52;3.67;;;2.67;;
16837;SDS011;19510;54.486;9.046;2023-07-09T08:22:19;2.95;;;2.30;;
16837;SDS011;19510;54.486;9.046;2023-07-09T08:24:47;3.22;;;2.38;;
16837;SDS011;19510;54.486;9.046;2023-07-09T08:27:13;2.90;;;2.45;;
16837;SDS011;19510;54.486;9.046;2023-07-09T08:29:39;4.75;;;3.70;;
16837;SDS011;19510;54.486;9.046;2023-07-09T08:32:06;3.30;;;2.92;;
16837;SDS011;19510;54.486;9.046;2023-07-09T08:34:33;3.03;;;2.40;;
16837;SDS011;19510;54.486;9.046;2023-07-09T08:36:59;7.40;;;2.55;;
16837;SDS011;19510;54.486;9.046;2023-07-09T08:39:25;7.13;;;2.40;;
16837;SDS011;19510;54.486;9.046;2023-07-09T08:41:55;10.13;;;6.18;;
16837;SDS011;19510;54.486;9.046;2023-07-09T08:47:30;3.60;;;2.60;;
16837;SDS011;19510;54.486;9.046;2023-07-09T08:50:00;3.15;;;2.22;;
16837;SDS011;19510;54.486;9.046;2023-07-09T08:52:40;2.70;;;2.10;;
16837;SDS011;19510;54.486;9.046;2023-07-09T08:55:09;4.05;;;2.30;;
16837;SDS011;19510;54.486;9.046;2023-07-09T08:57:40;3.17;;;2.30;;
16837;SDS011;19510;54.486;9.046;2023-07-09T09:03:07;3.30;;;2.08;;
16837;SDS011;19510;54.486;9.046;2023-07-09T09:05:36;4.00;;;2.67;;
16837;SDS011;19510;54.486;9.046;2023-07-09T09:08:12;3.30;;;2.42;;
16837;SDS011;19510;54.486;9.046;2023-07-09T09:11:07;6.13;;;2.60;;
16837;SDS011;19510;54.486;9.046;2023-07-09T09:13:48;3.67;;;2.58;;
16837;SDS011;19510;54.486;9.046;2023-07-09T09:16:36;5.88;;;3.17;;
16837;SDS011;19510;54.486;9.046;2023-07-09T09:19:09;3.95;;;2.72;;
16837;SDS011;19510;54.486;9.046;2023-07-09T09:22:03;5.88;;;2.60;;
16837;SDS011;19510;54.486;9.046;2023-07-09T09:24:37;4.15;;;2.40;;
16837;SDS011;19510;54.486;9.046;2023-07-09T09:27:11;3.58;;;2.80;;
16837;SDS011;19510;54.486;9.046;2023-07-09T09:29:37;3.25;;;2.60;;
16837;SDS011;19510;54.486;9.046;2023-07-09T09:32:18;4.13;;;2.88;;
16837;SDS011;19510;54.486;9.046;2023-07-09T09:34:50;4.80;;;3.30;;
16837;SDS011;19510;54.486;9.046;2023-07-09T09:37:22;3.03;;;2.35;;
16837;SDS011;19510;54.486;9.046;2023-07-09T09:39:59;5.97;;;2.47;;
16837;SDS011;19510;54.486;9.046;2023-07-09T09:42:25;6.30;;;3.00;;
16837;SDS011;19510;54.486;9.046;2023-07-09T09:44:53;5.18;;;2.75;;
16837;SDS011;19510;54.486;9.046;2023-07-09T09:47:20;3.75;;;2.40;;
16837;SDS011;19510;54.486;9.046;2023-07-09T09:49:48;4.05;;;2.65;;
16837;SDS011;19510;54.486;9.046;2023-07-09T09:52:17;3.28;;;2.63;;
16837;SDS011;19510;54.486;9.046;2023-07-09T09:54:46;3.22;;;2.55;;
16837;SDS011;19510;54.486;9.046;2023-07-09T09:57:27;3.85;;;2.58;;
16837;SDS011;19510;54.486;9.046;2023-07-09T09:59:54;3.92;;;2.65;;
16837;SDS011;19510;54.486;9.046;2023-07-09T10:02:21;5.13;;;2.63;;
16837;SDS011;19510;54.486;9.046;2023-07-09T10:04:50;5.50;;;2.92;;
16837;SDS011;19510;54.486;9.046;2023-07-09T10:07:20;2.85;;;2.30;;
16837;SDS011;19510;54.486;9.046;2023-07-09T10:09:57;4.32;;;2.60;;
16837;SDS011;19510;54.486;9.046;2023-07-09T10:18:28;3.97;;;2.80;;
16837;SDS011;19510;54.486;9.046;2023-07-09T10:26:32;4.55;;;2.78;;
16837;SDS011;19510;54.486;9.046;2023-07-09T10:29:16;4.68;;;3.00;;
16837;SDS011;19510;54.486;9.046;2023-07-09T10:39:44;4.25;;;2.65;;
16837;SDS011;19510;54.486;9.046;2023-07-09T10:42:57;4.00;;;2.90;;
16837;SDS011;19510;54.486;9.046;2023-07-09T10:45:09;3.85;;;2.80;;
16837;SDS011;19510;54.486;9.046;2023-07-09T10:47:45;3.22;;;2.50;;
16837;SDS011;19510;54.486;9.046;2023-07-09T10:50:15;5.85;;;3.17;;
16837;SDS011;19510;54.486;9.046;2023-07-09T10:52:50;4.13;;;2.90;;
16837;SDS011;19510;54.486;9.046;2023-07-09T10:58:22;4.43;;;3.20;;
16837;SDS011;19510;54.486;9.046;2023-07-09T11:00:50;4.95;;;2.92;;
16837;SDS011;19510;54.486;9.046;2023-07-09T11:03:19;4.35;;;3.15;;
16837;SDS011;19510;54.486;9.046;2023-07-09T11:05:58;5.93;;;3.08;;
16837;SDS011;19510;54.486;9.046;2023-07-09T11:08:26;4.30;;;2.90;;
16837;SDS011;19510;54.486;9.046;2023-07-09T11:10:59;3.63;;;2.97;;
16837;SDS011;19510;54.486;9.046;2023-07-09T11:13:39;6.35;;;3.05;;
16837;SDS011;19510;54.486;9.046;2023-07-09T11:16:12;5.57;;;2.97;;
16837;SDS011;19510;54.486;9.046;2023-07-09T19:56:32;3.90;;;2.40;;
16837;SDS011;19510;54.486;9.046;2023-07-09T19:58:58;5.10;;;2.25;;
16837;SDS011;19510;54.486;9.046;2023-07-09T20:01:24;6.10;;;1.98;;
16837;SDS011;19510;54.486;9.046;2023-07-09T20:03:49;4.70;;;2.35;;
16837;SDS011;19510;54.486;9.046;2023-07-09T20:06:15;4.20;;;2.45;;
16837;SDS011;19510;54.486;9.046;2023-07-09T20:08:41;4.18;;;2.30;;
16837;SDS011;19510;54.486;9.046;2023-07-09T20:11:10;5.57;;;2.20;;
16837;SDS011;19510;54.486;9.046;2023-07-09T20:13:37;8.00;;;2.30;;
16837;SDS011;19510;54.486;9.046;2023-07-09T20:16:03;13.00;;;2.60;;
16837;SDS011;19510;54.486;9.046;2023-07-09T20:18:29;4.07;;;2.60;;
16837;SDS011;19510;54.486;9.046;2023-07-09T20:20:57;4.35;;;2.97;;
16837;SDS011;19510;54.486;9.046;2023-07-09T20:23:25;8.20;;;2.92;;
16837;SDS011;19510;54.486;9.046;2023-07-09T20:25:52;10.35;;;2.80;;
16837;SDS011;19510;54.486;9.046;2023-07-09T20:30:46;4.35;;;3.08;;
16837;SDS011;19510;54.486;9.046;2023-07-09T20:33:13;4.28;;;2.78;;
16837;SDS011;19510;54.486;9.046;2023-07-09T20:35:40;7.85;;;3.10;;
16837;SDS011;19510;54.486;9.046;2023-07-09T20:38:13;5.90;;;2.65;;
16837;SDS011;19510;54.486;9.046;2023-07-09T20:40:47;7.03;;;3.10;;
16837;SDS011;19510;54.486;9.046;2023-07-09T20:43:21;8.50;;;3.42;;
16837;SDS011;19510;54.486;9.046;2023-07-09T20:45:49;8.90;;;4.25;;
16837;SDS011;19510;54.486;9.046;2023-07-09T20:48:14;8.10;;;4.95;;
16837;SDS011;19510;54.486;9.046;2023-07-09T20:50:41;11.57;;;5.70;;
16837;SDS011;19510;54.486;9.046;2023-07-09T20:53:09;10.07;;;5.88;;
16837;SDS011;19510;54.486;9.046;2023-07-09T20:55:36;10.35;;;7.55;;
16837;SDS011;19510;54.486;9.046;2023-07-09T20:58:02;16.50;;;9.63;;
16837;SDS011;19510;54.486;9.046;2023-07-09T21:00:28;18.05;;;10.85;;
16837;SDS011;19510;54.486;9.046;2023-07-09T21:02:54;18.23;;;11.02;;
16837;SDS011;19510;54.486;9.046;2023-07-09T21:05:20;23.48;;;10.80;;
16837;SDS011;19510;54.486;9.046;2023-07-09T21:07:49;21.38;;;11.70;;
16837;SDS011;19510;54.486;9.046;2023-07-09T21:10:23;21.10;;;9.75;;
16837;SDS011;19510;54.486;9.046;2023-07-09T21:12:50;15.15;;;8.57;;
16837;SDS011;19510;54.486;9.046;2023-07-09T21:15:23;19.77;;;8.65;;
16837;SDS011;19510;54.486;9.046;2023-07-09T21:17:50;15.85;;;8.90;;
16837;SDS011;19510;54.486;9.046;2023-07-09T21:20:19;13.95;;;6.88;;
16837;SDS011;19510;54.486;9.046;2023-07-09T21:22:46;15.45;;;7.35;;
16837;SDS011;19510;54.486;9.046;2023-07-09T21:27:44;18.13;;;7.20;;
16837;SDS011;19510;54.486;9.046;2023-07-09T21:30:10;13.57;;;6.72;;
16837;SDS011;19510;54.486;9.046;2023-07-09T21:32:36;11.82;;;6.22;;
16837;SDS011;19510;54.486;9.046;2023-07-09T21:35:10;16.15;;;6.60;;
16837;SDS011;19510;54.486;9.046;2023-07-09T21:37:46;17.00;;;6.30;;
16837;SDS011;19510;54.486;9.046;2023-07-09T21:42:51;13.38;;;6.70;;
16837;SDS011;19510;54.486;9.046;2023-07-09T21:45:18;9.70;;;6.18;;
16837;SDS011;19510;54.486;9.046;2023-07-09T21:47:46;12.63;;;7.05;;
16837;SDS011;19510;54.486;9.046;2023-07-09T21:50:19;18.33;;;7.18;;
16837;SDS011;19510;54.486;9.046;2023-07-09T21:52:46;20.00;;;7.95;;
16837;SDS011;19510;54.486;9.046;2023-07-09T21:55:13;13.95;;;7.03;;
16837;SDS011;19510;54.486;9.046;2023-07-09T21:57:44;13.23;;;7.22;;
16837;SDS011;19510;54.486;9.046;2023-07-09T22:00:20;14.60;;;6.75;;
16837;SDS011;19510;54.486;9.046;2023-07-09T22:02:48;14.20;;;7.95;;
16837;SDS011;19510;54.486;9.046;2023-07-09T22:05:16;13.43;;;7.47;;
16837;SDS011;19510;54.486;9.046;2023-07-09T22:07:46;12.38;;;7.47;;
16837;SDS011;19510;54.486;9.046;2023-07-09T22:10:14;14.52;;;8.15;;
16837;SDS011;19510;54.486;9.046;2023-07-09T22:12:42;15.60;;;8.30;;
16837;SDS011;19510;54.486;9.046;2023-07-09T22:15:13;13.85;;;9.20;;
16837;SDS011;19510;54.486;9.046;2023-07-09T22:17:50;13.50;;;8.57;;
16837;SDS011;19510;54.486;9.046;2023-07-09T22:20:18;16.08;;;8.82;;
16837;SDS011;19510;54.486;9.046;2023-07-09T22:22:46;17.40;;;9.25;;
16837;SDS011;19510;54.486;9.046;2023-07-09T22:25:13;16.63;;;9.35;;
16837;SDS011;19510;54.486;9.046;2023-07-09T22:27:40;19.63;;;9.90;;
16837;SDS011;19510;54.486;9.046;2023-07-09T22:30:06;15.65;;;8.60;;
16837;SDS011;19510;54.486;9.046;2023-07-09T22:32:32;14.38;;;9.70;;
